Delaware Park, New Jersey
Current Conditions -  °F | °C
As of 9:51 PM on Monday 20 Oct 2014 (Local Time) from KABE Reporting Station
Broken Clouds Broken Clouds  
Wind Chill: 56°   Ceiling: 11000
Heat Index: 56°   Visibility: 10mi
Dew Point: 40°   Wind: 0mph
Humidity: 55%   Direction: NA
Pressure: 29.96"   Gusts: NA
Location:  40.7083°N, 75.1472°W
Report Text: KABE 210151Z 00000KT 10SM BKN110 13/04 A2996 RMK AO2 SLP145 T01330044
Loading
Personal Weather Stations






























Interactive Weather Map
Tropical Storm Tracking
New forecast layout! Learn more

10-Day Weather Forecast

Advertisements
Track Severe Weather on mobile